Time;durP1;ratioP1;P1;durP2;ratioP2;P2;SDS_P1;SDS_P2;PMS_P1;PMS_P2;Temp;Humidity;BMP_temperature;BMP_pressure;BME280_temperature;BME280_humidity;BME280_pressure;Samples;Min_cycle;Max_cycle;Signal;HPM_P1;HPM_P2
2020/12/31 00:02:01;;;;;;;123.35;57.85;;;;;;;-1.40;86.83;100273.47;1796412;78;21152;-77
2020/12/31 00:04:28;;;;;;;128.55;59.88;;;;;;;-1.42;86.88;100278.92;1796447;79;21892;-77
2020/12/31 00:06:55;;;;;;;112.62;58.98;;;;;;;-1.45;86.91;100277.42;1796373;79;21186;-77
2020/12/31 00:09:24;;;;;;;120.35;58.40;;;;;;;-1.48;86.82;100279.80;1796391;78;21217;-77
2020/12/31 00:11:51;;;;;;;124.33;62.17;;;;;;;-1.53;86.75;100283.38;1796299;79;21569;-76
2020/12/31 00:14:18;;;;;;;132.72;65.40;;;;;;;-1.57;86.76;100284.86;1796439;79;21632;-77
2020/12/31 00:16:45;;;;;;;140.37;65.83;;;;;;;-1.61;86.74;100283.28;1796325;79;21888;-76
2020/12/31 00:19:12;;;;;;;135.50;64.70;;;;;;;-1.62;86.84;100286.64;1796320;79;21234;-79
2020/12/31 00:21:39;;;;;;;140.65;64.42;;;;;;;-1.62;86.88;100284.95;1796420;79;21154;-76
2020/12/31 00:24:06;;;;;;;120.90;60.65;;;;;;;-1.66;86.80;100284.25;1796322;79;21590;-78
2020/12/31 00:26:33;;;;;;;128.20;61.25;;;;;;;-1.68;86.79;100291.41;1796437;79;21044;-78
2020/12/31 00:29:00;;;;;;;126.30;60.85;;;;;;;-1.71;86.74;100292.48;1796446;79;22863;-78
2020/12/31 00:31:27;;;;;;;123.20;59.35;;;;;;;-1.74;86.72;100288.44;1796274;79;21154;-78
2020/12/31 00:33:55;;;;;;;114.82;56.28;;;;;;;-1.79;86.81;100288.99;1796410;79;21617;-78
2020/12/31 00:36:22;;;;;;;105.20;54.55;;;;;;;-1.80;86.86;100294.97;1796469;79;21245;-78
2020/12/31 00:38:51;;;;;;;107.10;55.28;;;;;;;-1.82;86.89;100295.27;1796147;79;22262;-77
2020/12/31 00:41:21;;;;;;;108.27;52.98;;;;;;;-1.84;86.86;100297.22;1796374;79;21888;-77
2020/12/31 00:43:48;;;;;;;99.42;53.52;;;;;;;-1.86;86.88;100303.59;1796340;79;21107;-77
2020/12/31 00:46:16;;;;;;;105.60;55.35;;;;;;;-1.88;86.88;100302.56;1796420;78;21171;-77
2020/12/31 00:48:43;;;;;;;105.87;54.18;;;;;;;-1.89;86.92;100305.07;1796526;79;21142;-77
2020/12/31 00:51:10;;;;;;;107.50;55.98;;;;;;;-1.90;87.01;100308.42;1796333;79;21131;-77
2020/12/31 00:53:37;;;;;;;99.35;54.20;;;;;;;-1.90;87.11;100301.57;1796465;79;21173;-77
2020/12/31 00:56:14;;;;;;;103.47;54.85;;;;;;;-1.88;87.15;100305.55;1796213;79;21218;-77
2020/12/31 00:58:41;;;;;;;120.57;59.73;;;;;;;-1.87;87.21;100304.37;1796331;78;21554;-77
2020/12/31 01:01:11;;;;;;;106.27;53.70;;;;;;;-1.87;87.17;100307.35;1796348;79;21163;-77
2020/12/31 01:03:38;;;;;;;112.42;55.75;;;;;;;-1.87;87.27;100301.79;1796410;79;21131;-77
2020/12/31 01:06:05;;;;;;;112.35;57.90;;;;;;;-1.86;87.33;100301.38;1796255;79;21895;-77
2020/12/31 01:08:32;;;;;;;113.08;54.67;;;;;;;-1.87;87.32;100300.50;1796408;79;21186;-77
2020/12/31 01:10:59;;;;;;;110.42;54.77;;;;;;;-1.85;87.30;100301.90;1796417;79;21186;-77
2020/12/31 01:13:26;;;;;;;102.78;52.95;;;;;;;-1.87;87.27;100306.06;1796390;79;21162;-77
2020/12/31 01:15:53;;;;;;;120.15;59.23;;;;;;;-1.85;87.41;100305.77;1796338;79;21163;-77
2020/12/31 01:18:20;;;;;;;93.35;47.88;;;;;;;-1.87;87.42;100304.37;1796354;79;21116;-77
2020/12/31 01:20:47;;;;;;;103.85;51.95;;;;;;;-1.83;87.43;100308.94;1796322;79;21198;-77
2020/12/31 01:23:15;;;;;;;102.05;51.28;;;;;;;-1.84;87.35;100307.54;1796334;79;21151;-77
2020/12/31 01:25:42;;;;;;;101.15;49.58;;;;;;;-1.84;87.39;100303.67;1765363;79;21156;-77
2020/12/31 01:28:09;;;;;;;105.63;52.23;;;;;;;-1.85;87.35;100308.34;1796418;79;21119;-77
2020/12/31 01:30:36;;;;;;;102.82;53.80;;;;;;;-1.87;87.22;100315.09;1796315;79;21882;-77
2020/12/31 01:33:03;;;;;;;104.15;52.25;;;;;;;-1.90;87.22;100320.03;1796227;79;21676;-77
2020/12/31 01:35:30;;;;;;;96.17;51.30;;;;;;;-1.93;87.13;100321.10;1796348;79;21051;-77
2020/12/31 01:37:57;;;;;;;94.25;48.50;;;;;;;-1.96;87.09;100316.64;1796292;79;21667;-77
2020/12/31 01:40:24;;;;;;;91.78;47.45;;;;;;;-1.96;87.12;100321.80;1817482;78;21133;-77
2020/12/31 01:42:51;;;;;;;84.92;45.10;;;;;;;-1.97;87.10;100329.06;1819180;78;22839;-78
2020/12/31 01:45:18;;;;;;;83.03;43.80;;;;;;;-1.99;87.04;100323.79;1819085;78;21204;-78
2020/12/31 01:47:46;;;;;;;91.40;46.65;;;;;;;-2.00;86.98;100325.85;1819192;78;21176;-78
2020/12/31 01:50:12;;;;;;;90.57;48.38;;;;;;;-2.02;87.03;100326.55;1819319;78;21257;-78
2020/12/31 01:52:40;;;;;;;95.62;47.00;;;;;;;-2.02;87.12;100324.86;1819143;78;21199;-78
2020/12/31 01:55:07;;;;;;;99.10;51.25;;;;;;;-2.03;87.12;100329.50;1819152;78;21877;-78
2020/12/31 01:57:34;;;;;;;98.35;52.10;;;;;;;-2.02;87.20;100335.58;1819087;78;21174;-78
2020/12/31 02:00:04;;;;;;;103.70;51.35;;;;;;;-2.03;87.27;100337.23;1819095;77;21139;-78
2020/12/31 02:02:31;;;;;;;94.52;49.83;;;;;;;-2.03;87.25;100338.93;1819107;78;21495;-78
2020/12/31 02:04:58;;;;;;;107.55;53.10;;;;;;;-2.03;87.24;100338.93;1819181;78;21195;-78
2020/12/31 02:07:25;;;;;;;103.12;51.05;;;;;;;-2.02;87.35;100339.45;1819119;77;21888;-78
2020/12/31 02:09:52;;;;;;;93.35;48.75;;;;;;;-2.01;87.42;100337.35;1819016;77;21219;-77
2020/12/31 02:12:19;;;;;;;92.05;47.90;;;;;;;-2.02;87.35;100342.91;1819067;77;21260;-78
2020/12/31 02:14:51;;;;;;;84.05;47.40;;;;;;;-2.04;87.26;100335.87;1819152;78;21148;-78
2020/12/31 02:17:18;;;;;;;101.53;51.20;;;;;;;-2.04;87.22;100347.48;1819078;78;21435;-78
2020/12/31 02:19:45;;;;;;;132.52;66.40;;;;;;;-2.03;87.35;100351.42;1819049;78;21890;-78
2020/12/31 02:22:12;;;;;;;98.70;52.38;;;;;;;-2.00;87.44;100350.77;1818840;77;21565;-78
2020/12/31 02:24:39;;;;;;;90.38;45.15;;;;;;;-1.94;87.57;100345.13;1818948;77;21116;-77
2020/12/31 02:27:06;;;;;;;81.67;45.23;;;;;;;-1.88;87.68;100346.82;1818953;77;21254;-78
2020/12/31 02:29:33;;;;;;;79.30;45.28;;;;;;;-1.81;87.81;100343.88;1819281;78;21080;-78
2020/12/31 02:32:00;;;;;;;132.78;63.75;;;;;;;-1.73;87.95;100350.44;1819163;78;21882;-78
2020/12/31 02:34:27;;;;;;;111.70;55.50;;;;;;;-1.63;87.98;100346.81;1819020;77;21546;-78
2020/12/31 02:36:55;;;;;;;100.78;51.18;;;;;;;-1.58;87.87;100345.03;1819033;78;21192;-78
2020/12/31 02:39:22;;;;;;;98.78;50.33;;;;;;;-1.52;87.77;100351.00;1810438;77;21636;-78
2020/12/31 02:41:49;;;;;;;107.60;53.90;;;;;;;-1.50;87.64;100345.91;1796301;78;21183;-78
2020/12/31 02:44:16;;;;;;;94.87;49.45;;;;;;;-1.47;87.61;100348.30;1796354;79;21890;-78
2020/12/31 02:46:43;;;;;;;84.15;47.40;;;;;;;-1.43;87.62;100351.98;1796206;79;21208;-78
2020/12/31 02:49:10;;;;;;;90.25;46.23;;;;;;;-1.38;87.56;100355.37;1796176;79;21158;-78
2020/12/31 02:51:37;;;;;;;85.35;46.70;;;;;;;-1.30;87.68;100352.00;1796233;79;21123;-78
2020/12/31 02:54:21;;;;;;;90.65;45.88;;;;;;;-1.22;87.62;100352.13;1796342;78;22220;-78
2020/12/31 02:56:48;;;;;;;92.70;48.52;;;;;;;-1.16;87.59;100349.05;1795033;79;21975;-78
2020/12/31 02:59:15;;;;;;;89.17;48.28;;;;;;;-1.12;87.49;100349.73;1796323;79;21147;-78
2020/12/31 03:01:42;;;;;;;85.77;44.90;;;;;;;-1.09;87.39;100347.73;1796408;79;21154;-78
2020/12/31 03:04:09;;;;;;;84.55;44.63;;;;;;;-1.11;87.23;100346.34;1796368;78;21143;-77
2020/12/31 03:06:36;;;;;;;84.85;45.65;;;;;;;-1.10;87.28;100345.56;1796419;79;21186;-77
2020/12/31 03:09:04;;;;;;;99.13;50.30;;;;;;;-1.06;87.38;100347.55;1796357;79;21886;-77
2020/12/31 03:11:30;;;;;;;101.78;49.30;;;;;;;-1.02;87.41;100349.52;1796382;79;21132;-77
2020/12/31 03:13:58;;;;;;;96.12;49.03;;;;;;;-1.01;87.39;100350.03;1796418;79;21116;-77
2020/12/31 03:16:25;;;;;;;90.85;46.23;;;;;;;-0.94;87.45;100351.71;1796474;79;21155;-77
2020/12/31 03:18:52;;;;;;;92.62;48.42;;;;;;;-0.85;87.56;100349.72;1796474;78;21171;-78
2020/12/31 03:21:19;;;;;;;101.12;51.37;;;;;;;-0.82;87.44;100339.19;1796422;79;21888;-78
2020/12/31 03:23:46;;;;;;;88.22;46.02;;;;;;;-0.81;87.33;100346.16;1796328;79;21586;-77
2020/12/31 03:26:16;;;;;;;87.37;47.67;;;;;;;-0.81;87.20;100348.74;1796385;79;21410;-78
2020/12/31 03:28:43;;;;;;;91.78;46.55;;;;;;;-0.80;87.21;100352.21;1796284;79;21580;-76
2020/12/31 03:31:10;;;;;;;96.32;47.00;;;;;;;-0.75;87.26;100348.61;1796424;78;21119;-76
2020/12/31 03:33:38;;;;;;;83.97;45.38;;;;;;;-0.70;87.36;100351.98;1796387;79;21887;-76
2020/12/31 03:36:05;;;;;;;78.87;45.10;;;;;;;-0.67;87.30;100350.90;1796264;79;21762;-76
2020/12/31 03:38:32;;;;;;;78.80;46.45;;;;;;;-0.62;87.34;100343.42;1796371;79;22099;-76
2020/12/31 03:40:59;;;;;;;84.70;46.90;;;;;;;-0.56;87.35;100348.08;1816535;78;21625;-76
2020/12/31 03:43:26;;;;;;;79.10;44.67;;;;;;;-0.52;87.34;100353.55;1819268;78;21132;-76
2020/12/31 03:45:53;;;;;;;79.35;44.35;;;;;;;-0.48;87.28;100350.36;1819177;78;21767;-77
2020/12/31 03:48:20;;;;;;;83.75;44.77;;;;;;;-0.44;87.27;100351.45;1818938;78;21574;-77
2020/12/31 03:50:52;;;;;;;76.70;42.90;;;;;;;-0.42;87.22;100352.44;1819037;78;21160;-76
2020/12/31 03:53:19;;;;;;;77.45;42.60;;;;;;;-0.44;87.01;100352.33;1819050;78;21192;-78
2020/12/31 03:55:46;;;;;;;69.60;41.58;;;;;;;-0.50;86.77;100353.66;1819098;77;21155;-77
2020/12/31 03:58:13;;;;;;;71.15;41.95;;;;;;;-0.59;86.58;100346.20;1818967;78;22171;-77
2020/12/31 04:00:40;;;;;;;80.22;41.95;;;;;;;-0.68;86.46;100352.97;1819039;78;21117;-77
2020/12/31 04:03:07;;;;;;;75.83;40.80;;;;;;;-0.76;86.37;100357.18;1819106;78;21187;-77
2020/12/31 04:05:34;;;;;;;81.08;43.17;;;;;;;-0.88;86.28;100355.97;1819211;77;21250;-77
2020/12/31 04:08:01;;;;;;;77.32;42.10;;;;;;;-0.93;86.44;100354.81;1819024;78;21219;-78
2020/12/31 04:10:28;;;;;;;76.28;42.98;;;;;;;-0.96;86.59;100352.02;1819139;77;21891;-78
2020/12/31 04:12:55;;;;;;;79.03;42.60;;;;;;;-0.96;86.79;100355.89;1819059;77;21203;-77
2020/12/31 04:15:24;;;;;;;73.17;43.80;;;;;;;-0.94;86.92;100359.06;1818856;78;21176;-77
2020/12/31 04:17:52;;;;;;;70.67;41.50;;;;;;;-0.88;87.01;100365.02;1792304;78;21231;-77
2020/12/31 04:20:19;;;;;;;72.27;42.98;;;;;;;-0.86;87.04;100363.05;1819036;78;21195;-77
2020/12/31 04:22:46;;;;;;;73.35;41.10;;;;;;;-0.80;87.15;100356.97;1819169;78;21896;-77
2020/12/31 04:25:13;;;;;;;79.27;42.55;;;;;;;-0.75;87.12;100366.33;1819124;78;21203;-77
2020/12/31 04:27:40;;;;;;;73.00;42.90;;;;;;;-0.69;87.12;100363.24;1819210;77;21164;-77
2020/12/31 04:30:07;;;;;;;70.45;40.92;;;;;;;-0.67;87.05;100362.94;1819030;78;21778;-77
2020/12/31 04:32:34;;;;;;;74.75;40.83;;;;;;;-0.62;87.14;100366.31;1819270;78;21124;-77
2020/12/31 04:35:01;;;;;;;70.12;42.13;;;;;;;-0.55;87.15;100358.52;1819093;78;21890;-77
2020/12/31 04:37:28;;;;;;;72.97;43.58;;;;;;;-0.50;87.14;100357.12;1819114;78;21231;-77
2020/12/31 04:39:55;;;;;;;80.55;42.33;;;;;;;-0.44;87.13;100348.86;1818870;78;21136;-77
2020/12/31 04:42:25;;;;;;;74.30;42.27;;;;;;;-0.40;87.12;100359.48;1818924;78;21590;-76
2020/12/31 04:44:52;;;;;;;75.75;43.25;;;;;;;-0.35;87.09;100358.48;1790834;78;21113;-76
2020/12/31 04:47:20;;;;;;;75.57;41.77;;;;;;;-0.34;86.92;100360.25;1819039;78;21160;-76
2020/12/31 04:49:51;;;;;;;78.95;42.00;;;;;;;-0.31;86.88;100364.34;1818943;78;21180;-77
2020/12/31 04:52:18;;;;;;;76.72;42.95;;;;;;;-0.33;86.79;100356.88;1819064;78;21575;-77
2020/12/31 04:54:45;;;;;;;74.77;42.00;;;;;;;-0.32;86.78;100357.39;1819012;78;21164;-77
2020/12/31 04:57:12;;;;;;;77.10;44.45;;;;;;;-0.31;86.80;100351.41;1819003;78;21566;-77
2020/12/31 04:59:39;;;;;;;81.05;44.30;;;;;;;-0.30;86.75;100362.27;1819082;78;22868;-77
2020/12/31 05:02:07;;;;;;;78.72;44.45;;;;;;;-0.28;86.79;100362.33;1819007;78;21207;-77
2020/12/31 05:04:34;;;;;;;85.05;46.53;;;;;;;-0.28;86.76;100367.13;1819053;77;21168;-77
2020/12/31 05:07:02;;;;;;;91.25;47.88;;;;;;;-0.27;86.82;100371.48;1818955;78;21599;-76
2020/12/31 05:09:30;;;;;;;94.90;48.58;;;;;;;-0.26;86.76;100374.58;1818978;77;21582;-77
2020/12/31 05:11:57;;;;;;;90.17;48.83;;;;;;;-0.26;86.71;100377.58;1818895;77;22008;-76
2020/12/31 05:14:30;;;;;;;96.15;50.35;;;;;;;-0.27;86.65;100379.65;1818844;77;21188;-77
2020/12/31 05:17:15;;;;;;;96.20;49.20;;;;;;;-0.28;86.61;100385.23;1819107;78;21180;-77
2020/12/31 05:19:42;;;;;;;99.67;49.38;;;;;;;-0.31;86.50;100386.73;1792880;78;21192;-76
2020/12/31 05:22:17;;;;;;;93.25;46.75;;;;;;;-0.37;86.37;100385.95;1818949;78;21554;-75
2020/12/31 05:24:48;;;;;;;88.95;46.30;;;;;;;-0.43;86.32;100392.92;1819267;78;21882;-75
2020/12/31 05:27:23;;;;;;;92.78;47.15;;;;;;;-0.48;86.24;100389.55;1818104;78;21147;-76
2020/12/31 05:30:05;;;;;;;89.10;47.13;;;;;;;-0.56;86.10;100382.61;1818593;78;21542;-77
2020/12/31 05:32:41;;;;;;;82.45;45.85;;;;;;;-0.68;85.96;100383.10;1819060;78;21191;-78
2020/12/31 05:35:11;;;;;;;86.65;45.75;;;;;;;-0.81;85.94;100396.55;1818967;78;21140;-76
2020/12/31 05:37:38;;;;;;;87.57;47.58;;;;;;;-0.87;86.05;100396.13;1797906;77;21878;-77
2020/12/31 05:40:09;;;;;;;91.53;46.90;;;;;;;-0.95;86.06;100402.50;1780713;79;21208;-77
2020/12/31 05:42:38;;;;;;;84.35;48.10;;;;;;;-1.02;86.09;100399.89;1764329;81;21586;-76
2020/12/31 05:45:13;;;;;;;87.25;46.70;;;;;;;-1.11;86.05;100401.88;1764586;80;21271;-76
2020/12/31 05:47:53;;;;;;;95.62;47.58;;;;;;;-1.16;86.30;100394.24;1764949;81;21154;-76
2020/12/31 05:50:40;;;;;;;;;;;;;;;;;;;;;
2020/12/31 05:53:42;;;;;;;92.85;47.67;;;;;;;-1.24;86.33;100400.57;1695615;83;21310;-91
2020/12/31 05:56:28;;;;;;;89.58;49.48;;;;;;;-1.27;86.43;100405.15;1890562;75;23273;-88
2020/12/31 05:58:55;;;;;;;90.22;48.78;;;;;;;-1.34;86.49;100418.84;1863351;77;21664;-87
2020/12/31 06:01:22;;;;;;;95.05;50.80;;;;;;;-1.38;86.60;100419.03;1863509;77;22090;-86
2020/12/31 06:03:52;;;;;;;88.72;48.00;;;;;;;-1.34;86.81;100421.02;1863354;77;21207;-87
2020/12/31 06:06:21;;;;;;;91.02;48.70;;;;;;;-1.34;86.77;100416.27;1863647;77;21128;-88
2020/12/31 06:08:57;;;;;;;91.65;47.98;;;;;;;-1.35;86.74;100417.03;1863240;77;21174;-85
2020/12/31 06:11:34;;;;;;;90.17;47.98;;;;;;;-1.37;86.84;100420.43;1864052;77;21286;-92
2020/12/31 06:14:03;;;;;;;91.85;48.00;;;;;;;-1.30;87.03;100425.59;1863503;77;21936;-87
2020/12/31 06:16:37;;;;;;;87.05;46.92;;;;;;;-1.29;86.92;100424.81;1862143;76;21139;-88
2020/12/31 06:19:29;;;;;;;88.30;48.38;;;;;;;-1.31;86.88;100430.67;1863549;77;21195;-89
2020/12/31 06:22:08;;;;;;;86.53;47.10;;;;;;;-1.30;86.96;100431.16;1864148;77;21123;-90
2020/12/31 06:24:40;;;;;;;86.87;46.92;;;;;;;-1.29;87.01;100435.14;1863585;77;21072;-89
2020/12/31 06:27:09;;;;;;;94.13;46.50;;;;;;;-1.27;87.09;100432.27;1863508;77;21872;-89
2020/12/31 06:29:49;;;;;;;85.62;45.48;;;;;;;-1.17;87.41;100437.23;1863571;77;21230;-90
2020/12/31 06:32:38;;;;;;;83.90;44.90;;;;;;;-1.01;87.54;100445.62;1888724;76;22750;-77
2020/12/31 06:35:07;;;;;;;83.07;43.33;;;;;;;-0.96;87.54;100447.61;1854270;76;21677;-76
2020/12/31 06:37:34;;;;;;;85.55;44.70;;;;;;;-0.87;87.60;100449.09;1859615;76;21880;-76
2020/12/31 06:40:29;;;;;;;90.72;50.52;;;;;;;-0.76;87.63;100452.39;1859468;76;21614;-76
2020/12/31 06:43:08;;;;;;;87.85;48.05;;;;;;;-0.66;87.71;100450.92;1859326;76;21605;-77
2020/12/31 06:45:44;;;;;;;103.20;56.10;;;;;;;-0.49;87.72;100453.67;1859521;77;21050;-77
2020/12/31 06:48:29;;;;;;;111.55;59.10;;;;;;;-0.35;87.71;100451.59;1859470;77;21156;-77
2020/12/31 06:51:02;;;;;;;118.60;60.85;;;;;;;-0.27;87.53;100445.20;1859535;77;22853;-78
2020/12/31 06:53:39;;;;;;;130.60;60.98;;;;;;;-0.30;87.25;100432.09;1859715;77;21654;-76
2020/12/31 06:56:10;;;;;;;122.65;61.60;;;;;;;-0.30;87.25;100432.09;1859483;76;21160;-76
2020/12/31 06:58:37;;;;;;;122.90;61.23;;;;;;;-0.17;87.18;100447.07;1859307;77;21957;-76
2020/12/31 07:01:30;;;;;;;116.70;60.70;;;;;;;-0.13;87.18;100452.55;1859518;76;21585;-76
2020/12/31 07:03:59;;;;;;;120.92;59.98;;;;;;;-0.08;87.11;100453.71;1853101;76;21944;-76
2020/12/31 07:06:27;;;;;;;113.03;57.23;;;;;;;0.00;87.10;100458.09;1851177;76;21133;-76
2020/12/31 07:08:59;;;;;;;110.90;57.62;;;;;;;0.04;87.07;100456.56;1809827;77;21765;-76
2020/12/31 07:11:40;;;;;;;115.70;59.90;;;;;;;0.07;87.04;100461.53;1825992;77;21157;-76
2020/12/31 07:14:26;;;;;;;109.37;57.23;;;;;;;0.15;87.12;100456.83;1825430;78;21467;-77
2020/12/31 07:16:58;;;;;;;97.97;52.50;;;;;;;0.22;87.17;100468.06;1825463;78;22844;-79
2020/12/31 07:19:40;;;;;;;96.32;51.85;;;;;;;0.30;87.11;100463.35;1825866;77;21136;-78
2020/12/31 07:22:18;;;;;;;91.92;51.80;;;;;;;0.35;87.15;100461.95;1825752;78;21212;-77
2020/12/31 07:25:01;;;;;;;90.77;49.80;;;;;;;0.40;87.08;100463.55;1825734;78;21145;-77
2020/12/31 07:27:34;;;;;;;90.17;49.13;;;;;;;0.48;87.12;100470.07;1786024;78;21235;-75
2020/12/31 07:30:09;;;;;;;84.45;47.35;;;;;;;0.51;87.05;100467.27;1825816;78;22102;-76
2020/12/31 07:32:58;;;;;;;92.37;51.80;;;;;;;0.56;87.02;100470.12;1802780;77;21071;-76
2020/12/31 07:35:41;;;;;;;99.42;53.13;;;;;;;0.61;86.93;100467.83;1801251;79;21498;-75
2020/12/31 07:38:15;;;;;;;90.85;50.78;;;;;;;0.62;86.81;100475.69;1766130;79;21139;-76
2020/12/31 07:40:49;;;;;;;97.60;54.47;;;;;;;0.64;86.75;100476.67;1766464;81;21151;-77
2020/12/31 07:43:25;;;;;;;97.90;55.25;;;;;;;0.65;86.72;100476.27;1762891;81;21905;-77
2020/12/31 07:46:00;;;;;;;94.77;53.52;;;;;;;0.66;86.67;100482.84;1762524;80;21189;-80
2020/12/31 07:48:27;;;;;;;106.50;57.27;;;;;;;0.71;86.76;100475.33;1767144;80;21228;-90
2020/12/31 07:51:09;;;;;;;101.25;55.20;;;;;;;0.74;86.67;100478.12;1781843;79;21112;-91
2020/12/31 07:53:36;;;;;;;104.00;56.58;;;;;;;0.77;86.66;100487.38;1794618;80;21143;-78
2020/12/31 07:56:03;;;;;;;98.85;55.90;;;;;;;0.81;86.67;100484.54;1794433;80;21818;-82
2020/12/31 07:58:32;;;;;;;105.32;54.65;;;;;;;0.85;86.71;100488.72;1783087;80;21169;-81
2020/12/31 08:00:59;;;;;;;101.45;54.93;;;;;;;0.93;86.79;100496.95;1797510;79;21111;-81
2020/12/31 08:03:26;;;;;;;99.40;55.63;;;;;;;0.97;86.71;100497.61;1794514;80;21618;-81
2020/12/31 08:05:57;;;;;;;100.70;55.00;;;;;;;1.02;86.68;100500.49;1794660;80;21612;-81
2020/12/31 08:08:25;;;;;;;98.25;54.15;;;;;;;1.07;86.64;100499.96;1770520;80;22853;-83
2020/12/31 08:10:52;;;;;;;99.72;53.52;;;;;;;1.11;86.59;100504.52;1740022;81;21170;-82
2020/12/31 08:13:19;;;;;;;94.85;53.55;;;;;;;1.14;86.59;100502.08;1735789;81;21159;-81
2020/12/31 08:15:55;;;;;;;92.17;52.20;;;;;;;1.20;86.50;100505.44;1763146;81;21140;-82
2020/12/31 08:18:22;;;;;;;90.25;50.88;;;;;;;1.25;86.50;100505.72;1763147;80;21159;-83
2020/12/31 08:20:50;;;;;;;90.22;52.05;;;;;;;1.33;86.63;100497.97;1752255;81;21907;-89
2020/12/31 08:23:19;;;;;;;109.65;57.60;;;;;;;1.40;86.54;100506.60;1735840;82;21139;-82
2020/12/31 08:25:46;;;;;;;99.32;56.33;;;;;;;1.46;86.49;100508.23;1763327;81;21588;-83
2020/12/31 08:28:20;;;;;;;92.12;56.00;;;;;;;1.54;86.54;100505.70;1763120;81;21598;-81
2020/12/31 08:30:47;;;;;;;99.37;56.20;;;;;;;1.67;86.66;100506.00;1762947;81;22101;-82
2020/12/31 08:33:24;;;;;;;94.97;53.13;;;;;;;1.77;86.51;100508.70;1747420;82;22674;-82
2020/12/31 08:35:51;;;;;;;85.38;49.85;;;;;;;1.85;86.48;100506.54;1769705;81;21220;-82
2020/12/31 08:38:21;;;;;;;94.50;51.92;;;;;;;1.97;86.47;100506.31;1770214;81;21602;-82
2020/12/31 08:40:53;;;;;;;89.35;52.15;;;;;;;2.07;86.43;100507.33;1769859;81;21144;-82
2020/12/31 08:43:28;;;;;;;105.37;58.52;;;;;;;2.16;86.30;100501.73;1770119;81;21191;-81
2020/12/31 08:45:57;;;;;;;99.67;55.03;;;;;;;2.24;86.28;100503.06;1767253;81;22425;-81
2020/12/31 08:48:30;;;;;;;99.20;53.38;;;;;;;2.31;86.15;100503.89;1770138;81;21447;-81
2020/12/31 08:51:12;;;;;;;90.22;52.43;;;;;;;2.37;86.05;100502.91;1770282;81;21582;-82
2020/12/31 08:53:55;;;;;;;96.42;50.95;;;;;;;2.43;85.90;100508.84;1770169;81;21167;-82
2020/12/31 08:56:25;;;;;;;93.50;55.10;;;;;;;2.48;85.91;100512.17;1769674;81;21167;-82
2020/12/31 08:59:07;;;;;;;105.70;61.00;;;;;;;2.60;86.06;100511.92;1770257;81;23053;-81
2020/12/31 09:01:35;;;;;;;95.53;55.60;;;;;;;2.71;85.99;100508.19;1767954;81;21127;-80
2020/12/31 09:04:18;;;;;;;96.32;56.63;;;;;;;2.81;85.87;100512.56;1770292;81;21128;-80
2020/12/31 09:06:49;;;;;;;89.75;54.60;;;;;;;2.88;85.84;100511.66;1769860;81;21214;-82
2020/12/31 09:09:28;;;;;;;101.12;59.58;;;;;;;2.94;85.60;100516.28;1770069;81;21144;-81
2020/12/31 09:12:03;;;;;;;97.95;55.30;;;;;;;2.98;85.49;100521.23;1770104;81;21902;-81
2020/12/31 09:14:32;;;;;;;99.70;57.65;;;;;;;2.97;85.21;100523.38;1770140;80;21209;-81
2020/12/31 09:16:59;;;;;;;100.02;55.70;;;;;;;2.86;84.94;100526.29;1770262;81;21151;-81
2020/12/31 09:19:26;;;;;;;90.45;52.88;;;;;;;2.76;84.80;100524.42;1770117;81;21229;-81
2020/12/31 09:21:53;;;;;;;98.80;54.63;;;;;;;2.65;84.71;100518.67;1770266;81;21175;-81
2020/12/31 09:24:22;;;;;;;105.00;58.48;;;;;;;2.56;84.82;100516.47;1770077;81;21899;-81
2020/12/31 09:26:59;;;;;;;88.22;51.55;;;;;;;2.43;84.76;100517.52;1770124;81;21171;-81
2020/12/31 09:29:26;;;;;;;112.97;60.30;;;;;;;2.35;84.87;100509.73;1770145;81;21135;-81
2020/12/31 09:31:54;;;;;;;115.30;59.27;;;;;;;2.30;84.96;100512.47;1764866;81;21204;-81
2020/12/31 09:34:22;;;;;;;106.47;56.05;;;;;;;2.24;85.02;100513.03;1756640;81;21160;-81
2020/12/31 09:36:49;;;;;;;100.70;53.78;;;;;;;2.22;85.11;100515.07;1756538;81;21909;-81
2020/12/31 09:39:17;;;;;;;101.70;54.25;;;;;;;2.20;85.17;100516.28;1756669;81;21128;-80
2020/12/31 09:41:44;;;;;;;94.80;51.98;;;;;;;2.17;85.15;100515.22;1758095;81;21128;-82
2020/12/31 09:44:11;;;;;;;106.97;56.13;;;;;;;2.12;85.21;100511.05;1757579;81;21682;-82
2020/12/31 09:46:38;;;;;;;133.40;63.15;;;;;;;2.09;85.25;100502.70;1756828;81;21172;-82
2020/12/31 09:49:05;;;;;;;111.57;61.13;;;;;;;2.11;85.40;100507.57;1761935;79;21904;-81
2020/12/31 09:51:32;;;;;;;116.37;61.53;;;;;;;2.09;85.41;100504.41;1789596;79;21177;-82
2020/12/31 09:54:00;;;;;;;118.28;60.23;;;;;;;2.07;85.40;100504.32;1789492;80;21239;-81
2020/12/31 09:56:32;;;;;;;100.82;54.75;;;;;;;2.05;85.45;100502.05;1789455;79;21247;-81
2020/12/31 09:58:59;;;;;;;89.10;52.25;;;;;;;2.06;85.55;100505.12;1789508;80;21155;-81
2020/12/31 10:01:27;;;;;;;86.00;53.35;;;;;;;2.10;85.60;100503.58;1789443;79;22868;-81
2020/12/31 10:03:54;;;;;;;88.27;58.60;;;;;;;2.10;85.61;100501.91;1788486;80;21175;-81
2020/12/31 10:06:21;;;;;;;78.20;49.18;;;;;;;2.12;85.65;100505.48;1779205;80;21127;-79
2020/12/31 10:09:16;;;;;;;;;;;;;;;;;;;;;
2020/12/31 10:12:01;;;;;;;83.07;48.83;;;;;;;2.16;85.66;100503.95;1785490;78;21168;-81
2020/12/31 10:14:38;;;;;;;76.20;47.88;;;;;;;2.17;85.61;100494.45;1781189;80;21598;-81
2020/12/31 10:17:06;;;;;;;87.12;52.78;;;;;;;2.19;85.67;100501.91;1786389;80;21160;-81
2020/12/31 10:19:33;;;;;;;76.30;47.60;;;;;;;2.21;85.73;100501.58;1786849;79;21109;-82
2020/12/31 10:22:01;;;;;;;73.45;46.73;;;;;;;2.26;85.79;100504.03;1789816;79;21160;-81
2020/12/31 10:24:28;;;;;;;76.07;45.85;;;;;;;2.26;85.67;100501.02;1786585;80;21203;-81
2020/12/31 10:26:55;;;;;;;79.53;47.65;;;;;;;2.26;85.70;100506.22;1786443;79;21991;-81
2020/12/31 10:29:22;;;;;;;68.95;43.30;;;;;;;2.32;85.79;100507.84;1786322;79;21156;-80
2020/12/31 10:31:51;;;;;;;67.35;42.62;;;;;;;2.34;85.68;100505.33;1784957;79;21153;-80
2020/12/31 10:34:18;;;;;;;75.00;45.08;;;;;;;2.33;85.68;100503.15;1780508;80;21168;-81
2020/12/31 10:36:56;;;;;;;76.95;47.05;;;;;;;2.34;85.66;100511.83;1780483;80;21140;-81
2020/12/31 10:39:24;;;;;;;87.20;50.40;;;;;;;2.37;85.72;100504.20;1780438;80;21893;-81
2020/12/31 10:41:51;;;;;;;84.22;49.50;;;;;;;2.40;85.71;100507.36;1780405;80;21168;-81
2020/12/31 10:44:24;;;;;;;86.28;49.95;;;;;;;2.43;85.66;100504.94;1801361;78;21122;-80
2020/12/31 10:46:51;;;;;;;95.60;54.23;;;;;;;2.43;85.57;100505.83;1817042;78;21303;-80
2020/12/31 10:49:23;;;;;;;91.42;52.50;;;;;;;2.42;85.48;100500.16;1808753;78;21154;-81
2020/12/31 10:51:48;;;;;;;85.17;48.38;;;;;;;2.41;85.50;100499.66;1779476;79;22094;-81
2020/12/31 10:54:16;;;;;;;73.57;43.85;;;;;;;2.43;85.50;100495.44;1789572;78;21266;-80
2020/12/31 10:56:43;;;;;;;78.95;44.45;;;;;;;2.45;85.56;100491.63;1796586;78;21183;-81
2020/12/31 10:59:10;;;;;;;90.92;47.45;;;;;;;2.47;85.53;100497.38;1790632;78;22518;-81
2020/12/31 11:01:37;;;;;;;89.17;47.93;;;;;;;2.48;85.48;100492.69;1790665;78;21155;-81
2020/12/31 11:04:04;;;;;;;85.65;48.30;;;;;;;2.51;85.43;100497.14;1772009;80;21672;-81
2020/12/31 11:06:31;;;;;;;84.83;46.23;;;;;;;2.51;85.39;100493.24;1778330;79;21715;-81
2020/12/31 11:08:58;;;;;;;85.28;46.40;;;;;;;2.51;85.33;100494.54;1792589;78;21149;-81
2020/12/31 11:11:30;;;;;;;77.70;44.50;;;;;;;2.52;85.32;100501.13;1792021;79;21175;-81
2020/12/31 11:13:57;;;;;;;89.22;50.15;;;;;;;2.54;85.41;100494.72;1799978;78;21155;-81
2020/12/31 11:16:24;;;;;;;79.35;45.17;;;;;;;2.54;85.31;100496.02;1831282;78;22888;-81
2020/12/31 11:18:51;;;;;;;90.85;48.65;;;;;;;2.53;85.30;100489.94;1824625;78;21149;-81
2020/12/31 11:21:19;;;;;;;68.00;42.00;;;;;;;2.53;85.22;100490.31;1783254;80;21131;-82
2020/12/31 11:23:51;;;;;;;80.92;45.60;;;;;;;2.49;85.19;100477.56;1785411;78;21604;-81
2020/12/31 11:26:21;;;;;;;68.83;41.50;;;;;;;2.48;85.20;100478.40;1793791;78;21164;-78